Adna, Washington
Current Conditions -  °F | °C
As of 6:15 PM on Friday 24 Oct 2014 (Local Time) from KCLS Reporting Station
Light Rain Light Rain  
Wind Chill: 52°   Ceiling: 6500
Heat Index: 52°   Visibility: 10mi
Dew Point: 52°   Wind: 5mph
Humidity: 100%   Direction: 10°N
Pressure: 29.84"   Gusts: NA
Location:  46.63°N, 123.06°W
Report Text: KCLS 250115Z AUTO 01004KT 10SM -RA OVC065 11/11 A2984 RMK AO2
Loading
Personal Weather Stations






























Interactive Weather Map New forecast layout! Learn more

10-Day Weather Forecast

Advertisements
Track Severe Weather on mobile